This is the latest recevied weather packets stored in our database for station/object GW1542. If no packets are shown the sender has not sent any weather packets the latest 10 day(s).
| Time | Temp. | Humidity | Pressure | Rain* | Wind** | Luminosity | Snow |
|---|---|---|---|---|---|---|---|
| 1777543972 | 6.67° C | 85% | 1011.1 hPa | 0 mm | - | - | - |
| 1777541793 | 6.67° C | 84% | 1011.1 hPa | 0 mm | - | - | - |
| 1777541092 | 7.22° C | 84% | 1011.1 hPa | 0 mm | - | - | - |
| 1777539636 | 7.78° C | 84% | 1011.1 hPa | 0 mm | - | - | - |
| 1777533490 | 8.33° C | 87% | 1011.1 hPa | 0 mm | - | - | - |
| 1777533164 | 8.33° C | 88% | 1011.1 hPa | 0 mm | - | - | - |
| 1777529177 | 8.33° C | 89% | 1011.1 hPa | 0 mm | - | - | - |
| 1777525575 | 9.44° C | 89% | 1011.8 hPa | 0 mm | - | - | - |
| 1777523807 | 10° C | 88% | 1011.5 hPa | 0 mm | - | - | - |
| 1777522339 | 10° C | 88% | 1011.5 hPa | 0 mm | - | - | - |
| 1777519854 | 10.56° C | 89% | 1011.8 hPa | 17.78 mm | - | - | - |
| 1777518740 | 10.56° C | 90% | 1011.8 hPa | 17.78 mm | - | - | - |
| 1777518380 | 10.56° C | 89% | 1011.5 hPa | 17.78 mm | - | - | - |
| 1777515868 | 11.11° C | 91% | 1011.8 hPa | 17.78 mm | - | - | - |
| 1777515498 | 11.11° C | 90% | 1011.8 hPa | 17.78 mm | - | - | - |
| 1777515131 | 11.11° C | 91% | 1011.8 hPa | 17.78 mm | - | - | - |
| 1777512972 | 11.67° C | 94% | 1011.5 hPa | 16.51 mm | - | - | - |
| 1777507957 | 11.67° C | 92% | 1011.1 hPa | 15.49 mm | - | - | - |
| 1777507230 | 11.67° C | 94% | 1011.1 hPa | 14.48 mm | - | - | - |
| 1777506139 | 11.67° C | 94% | 1010.8 hPa | 13.46 mm | - | - | - |
| 1777500023 | 13.89° C | 91% | 1009.1 hPa | 10.16 mm | - | - | - |
| 1777497889 | 15.56° C | 90% | 1008.1 hPa | 5.59 mm | - | - | - |
| 1777492106 | 13.33° C | 96% | 1009.8 hPa | 3.05 mm | - | - | - |
| 1777491380 | 13.33° C | 95% | 1010.1 hPa | 2.03 mm | - | - | - |
| 1777485267 | 16.67° C | 76% | 1010.8 hPa | 0 mm | - | - | - |
* Rain since midnight (hover to see other rain measurements)
** Current wind speed in m/s (hover to see current wind gust speed)